sensor_id;sensor_type;location;lat;lon;timestamp;P1;durP1;ratioP1;P2;durP2;ratioP2
5684;SDS011;2865;53.114;9.130;2022-09-21T00:00:06;4.47;;;3.60;;
5684;SDS011;2865;53.114;9.130;2022-09-21T00:02:32;2.97;;;2.70;;
5684;SDS011;2865;53.114;9.130;2022-09-21T00:04:58;3.07;;;2.83;;
5684;SDS011;2865;53.114;9.130;2022-09-21T00:07:23;2.17;;;2.03;;
5684;SDS011;2865;53.114;9.130;2022-09-21T00:09:48;2.00;;;1.90;;
5684;SDS011;2865;53.114;9.130;2022-09-21T00:12:14;2.50;;;2.40;;
5684;SDS011;2865;53.114;9.130;2022-09-21T00:14:39;2.77;;;2.57;;
5684;SDS011;2865;53.114;9.130;2022-09-21T00:17:05;3.10;;;2.90;;
5684;SDS011;2865;53.114;9.130;2022-09-21T00:19:30;3.30;;;3.10;;
5684;SDS011;2865;53.114;9.130;2022-09-21T00:21:56;3.10;;;2.90;;
5684;SDS011;2865;53.114;9.130;2022-09-21T00:24:21;3.20;;;2.90;;
5684;SDS011;2865;53.114;9.130;2022-09-21T00:26:47;3.20;;;3.00;;
5684;SDS011;2865;53.114;9.130;2022-09-21T00:29:12;4.60;;;3.47;;
5684;SDS011;2865;53.114;9.130;2022-09-21T00:31:38;4.10;;;3.50;;
5684;SDS011;2865;53.114;9.130;2022-09-21T00:34:03;3.43;;;3.13;;
5684;SDS011;2865;53.114;9.130;2022-09-21T00:36:28;5.20;;;3.67;;
5684;SDS011;2865;53.114;9.130;2022-09-21T00:38:55;3.03;;;2.83;;
5684;SDS011;2865;53.114;9.130;2022-09-21T00:41:19;3.70;;;3.43;;
5684;SDS011;2865;53.114;9.130;2022-09-21T00:43:46;3.53;;;3.23;;
5684;SDS011;2865;53.114;9.130;2022-09-21T00:46:20;2.90;;;2.70;;
5684;SDS011;2865;53.114;9.130;2022-09-21T00:48:46;3.10;;;2.90;;
5684;SDS011;2865;53.114;9.130;2022-09-21T00:51:11;5.70;;;3.73;;
5684;SDS011;2865;53.114;9.130;2022-09-21T00:53:37;5.07;;;3.30;;
5684;SDS011;2865;53.114;9.130;2022-09-21T00:56:02;4.83;;;4.30;;
5684;SDS011;2865;53.114;9.130;2022-09-21T00:58:29;4.80;;;3.77;;
5684;SDS011;2865;53.114;9.130;2022-09-21T01:00:54;4.20;;;3.80;;
5684;SDS011;2865;53.114;9.130;2022-09-21T01:03:19;6.03;;;4.03;;
5684;SDS011;2865;53.114;9.130;2022-09-21T01:05:45;4.13;;;3.73;;
5684;SDS011;2865;53.114;9.130;2022-09-21T01:08:10;5.00;;;4.27;;
5684;SDS011;2865;53.114;9.130;2022-09-21T01:10:40;7.70;;;3.90;;
5684;SDS011;2865;53.114;9.130;2022-09-21T01:13:09;4.00;;;3.60;;
5684;SDS011;2865;53.114;9.130;2022-09-21T01:15:54;4.50;;;4.17;;
5684;SDS011;2865;53.114;9.130;2022-09-21T01:18:36;3.77;;;3.47;;
5684;SDS011;2865;53.114;9.130;2022-09-21T01:21:11;4.20;;;3.90;;
5684;SDS011;2865;53.114;9.130;2022-09-21T01:23:50;3.90;;;3.00;;
5684;SDS011;2865;53.114;9.130;2022-09-21T01:29:25;3.20;;;3.00;;
5684;SDS011;2865;53.114;9.130;2022-09-21T01:31:52;3.00;;;2.80;;
5684;SDS011;2865;53.114;9.130;2022-09-21T01:34:35;2.70;;;2.60;;
5684;SDS011;2865;53.114;9.130;2022-09-21T01:37:01;3.27;;;2.97;;
5684;SDS011;2865;53.114;9.130;2022-09-21T01:39:24;3.40;;;3.20;;
5684;SDS011;2865;53.114;9.130;2022-09-21T01:41:50;4.20;;;3.90;;
5684;SDS011;2865;53.114;9.130;2022-09-21T01:44:17;4.53;;;4.17;;
5684;SDS011;2865;53.114;9.130;2022-09-21T01:46:40;4.60;;;4.27;;
5684;SDS011;2865;53.114;9.130;2022-09-21T01:49:09;4.47;;;4.07;;
5684;SDS011;2865;53.114;9.130;2022-09-21T01:51:32;4.17;;;3.87;;
5684;SDS011;2865;53.114;9.130;2022-09-21T01:53:59;4.20;;;3.90;;
5684;SDS011;2865;53.114;9.130;2022-09-21T01:56:25;3.77;;;3.57;;
5684;SDS011;2865;53.114;9.130;2022-09-21T02:01:40;4.17;;;3.80;;
5684;SDS011;2865;53.114;9.130;2022-09-21T02:04:04;4.07;;;3.77;;
5684;SDS011;2865;53.114;9.130;2022-09-21T02:06:29;3.93;;;3.63;;
5684;SDS011;2865;53.114;9.130;2022-09-21T02:08:54;3.20;;;3.00;;
5684;SDS011;2865;53.114;9.130;2022-09-21T02:11:20;4.20;;;3.90;;
5684;SDS011;2865;53.114;9.130;2022-09-21T02:13:46;3.77;;;3.57;;
5684;SDS011;2865;53.114;9.130;2022-09-21T02:16:19;4.73;;;4.30;;
5684;SDS011;2865;53.114;9.130;2022-09-21T02:21:42;3.90;;;3.60;;
5684;SDS011;2865;53.114;9.130;2022-09-21T02:24:12;3.70;;;3.30;;
5684;SDS011;2865;53.114;9.130;2022-09-21T02:26:39;3.17;;;2.93;;
5684;SDS011;2865;53.114;9.130;2022-09-21T02:29:19;3.30;;;3.10;;
5684;SDS011;2865;53.114;9.130;2022-09-21T02:31:48;3.13;;;2.93;;
5684;SDS011;2865;53.114;9.130;2022-09-21T02:34:27;3.50;;;2.80;;
5684;SDS011;2865;53.114;9.130;2022-09-21T02:36:53;3.27;;;3.07;;
5684;SDS011;2865;53.114;9.130;2022-09-21T02:39:28;3.33;;;3.13;;
5684;SDS011;2865;53.114;9.130;2022-09-21T02:41:53;3.10;;;2.90;;
5684;SDS011;2865;53.114;9.130;2022-09-21T02:44:23;3.40;;;3.20;;
5684;SDS011;2865;53.114;9.130;2022-09-21T02:46:50;3.23;;;3.03;;
5684;SDS011;2865;53.114;9.130;2022-09-21T02:49:17;3.20;;;3.07;;
5684;SDS011;2865;53.114;9.130;2022-09-21T02:51:43;3.33;;;3.13;;
5684;SDS011;2865;53.114;9.130;2022-09-21T02:54:07;2.97;;;2.80;;
5684;SDS011;2865;53.114;9.130;2022-09-21T02:56:32;3.17;;;2.97;;
5684;SDS011;2865;53.114;9.130;2022-09-21T02:58:58;3.70;;;3.40;;
5684;SDS011;2865;53.114;9.130;2022-09-21T03:01:23;2.93;;;2.83;;
5684;SDS011;2865;53.114;9.130;2022-09-21T03:03:48;3.10;;;2.90;;
5684;SDS011;2865;53.114;9.130;2022-09-21T03:06:13;3.10;;;3.00;;
5684;SDS011;2865;53.114;9.130;2022-09-21T03:08:39;3.20;;;3.00;;
5684;SDS011;2865;53.114;9.130;2022-09-21T03:11:04;3.30;;;3.10;;
5684;SDS011;2865;53.114;9.130;2022-09-21T03:13:30;2.77;;;2.67;;
5684;SDS011;2865;53.114;9.130;2022-09-21T03:15:58;3.20;;;3.00;;
5684;SDS011;2865;53.114;9.130;2022-09-21T03:18:23;2.93;;;2.83;;
5684;SDS011;2865;53.114;9.130;2022-09-21T03:20:49;2.83;;;2.73;;
5684;SDS011;2865;53.114;9.130;2022-09-21T03:23:14;3.30;;;3.10;;
5684;SDS011;2865;53.114;9.130;2022-09-21T03:25:42;3.57;;;3.37;;
5684;SDS011;2865;53.114;9.130;2022-09-21T03:28:05;3.43;;;3.23;;
5684;SDS011;2865;53.114;9.130;2022-09-21T03:30:30;7.63;;;3.60;;
5684;SDS011;2865;53.114;9.130;2022-09-21T03:32:56;2.90;;;2.70;;
5684;SDS011;2865;53.114;9.130;2022-09-21T03:35:22;3.63;;;3.40;;
5684;SDS011;2865;53.114;9.130;2022-09-21T03:37:47;3.43;;;3.23;;
5684;SDS011;2865;53.114;9.130;2022-09-21T03:40:12;3.20;;;3.00;;
5684;SDS011;2865;53.114;9.130;2022-09-21T03:42:39;3.60;;;3.40;;
5684;SDS011;2865;53.114;9.130;2022-09-21T03:45:04;3.47;;;3.17;;
5684;SDS011;2865;53.114;9.130;2022-09-21T03:47:30;4.30;;;3.90;;
5684;SDS011;2865;53.114;9.130;2022-09-21T03:49:56;3.97;;;3.67;;
5684;SDS011;2865;53.114;9.130;2022-09-21T03:52:21;3.70;;;3.40;;
5684;SDS011;2865;53.114;9.130;2022-09-21T03:54:47;3.37;;;3.07;;
5684;SDS011;2865;53.114;9.130;2022-09-21T03:57:12;4.90;;;3.93;;
5684;SDS011;2865;53.114;9.130;2022-09-21T03:59:37;3.50;;;3.20;;
5684;SDS011;2865;53.114;9.130;2022-09-21T04:02:03;4.63;;;3.20;;
5684;SDS011;2865;53.114;9.130;2022-09-21T04:04:28;3.70;;;3.50;;
5684;SDS011;2865;53.114;9.130;2022-09-21T04:06:54;3.63;;;3.43;;
5684;SDS011;2865;53.114;9.130;2022-09-21T04:09:19;3.83;;;3.53;;
5684;SDS011;2865;53.114;9.130;2022-09-21T04:11:44;3.73;;;3.43;;
5684;SDS011;2865;53.114;9.130;2022-09-21T04:14:10;4.20;;;3.90;;
5684;SDS011;2865;53.114;9.130;2022-09-21T04:16:35;3.33;;;3.13;;
5684;SDS011;2865;53.114;9.130;2022-09-21T04:19:01;2.63;;;2.53;;
5684;SDS011;2865;53.114;9.130;2022-09-21T04:21:26;4.33;;;2.87;;
5684;SDS011;2865;53.114;9.130;2022-09-21T04:23:52;4.00;;;3.63;;
5684;SDS011;2865;53.114;9.130;2022-09-21T04:26:19;4.10;;;3.80;;
5684;SDS011;2865;53.114;9.130;2022-09-21T04:28:44;6.10;;;4.00;;
5684;SDS011;2865;53.114;9.130;2022-09-21T04:31:10;5.40;;;3.73;;
5684;SDS011;2865;53.114;9.130;2022-09-21T04:33:35;3.97;;;3.60;;
5684;SDS011;2865;53.114;9.130;2022-09-21T04:36:01;4.97;;;3.60;;
5684;SDS011;2865;53.114;9.130;2022-09-21T04:38:26;4.57;;;3.97;;
5684;SDS011;2865;53.114;9.130;2022-09-21T04:40:53;5.60;;;4.30;;
5684;SDS011;2865;53.114;9.130;2022-09-21T04:43:18;3.93;;;3.63;;
5684;SDS011;2865;53.114;9.130;2022-09-21T04:45:43;4.70;;;4.10;;
5684;SDS011;2865;53.114;9.130;2022-09-21T04:48:09;4.93;;;3.47;;
5684;SDS011;2865;53.114;9.130;2022-09-21T04:50:35;9.40;;;4.27;;
5684;SDS011;2865;53.114;9.130;2022-09-21T04:53:00;4.30;;;3.93;;
5684;SDS011;2865;53.114;9.130;2022-09-21T04:55:25;3.83;;;3.50;;
5684;SDS011;2865;53.114;9.130;2022-09-21T04:57:50;4.10;;;3.80;;
5684;SDS011;2865;53.114;9.130;2022-09-21T05:00:16;3.93;;;3.63;;
5684;SDS011;2865;53.114;9.130;2022-09-21T05:02:41;4.30;;;3.90;;
5684;SDS011;2865;53.114;9.130;2022-09-21T05:05:07;3.37;;;3.17;;
5684;SDS011;2865;53.114;9.130;2022-09-21T05:07:33;3.27;;;3.07;;
5684;SDS011;2865;53.114;9.130;2022-09-21T05:09:58;3.90;;;3.47;;
5684;SDS011;2865;53.114;9.130;2022-09-21T05:12:26;4.90;;;3.43;;
5684;SDS011;2865;53.114;9.130;2022-09-21T05:14:52;4.50;;;3.20;;
5684;SDS011;2865;53.114;9.130;2022-09-21T05:17:17;4.17;;;3.60;;
5684;SDS011;2865;53.114;9.130;2022-09-21T05:19:42;3.47;;;3.17;;
5684;SDS011;2865;53.114;9.130;2022-09-21T05:22:08;4.13;;;3.43;;
5684;SDS011;2865;53.114;9.130;2022-09-21T05:24:33;8.73;;;6.23;;
5684;SDS011;2865;53.114;9.130;2022-09-21T05:26:59;6.20;;;4.80;;
5684;SDS011;2865;53.114;9.130;2022-09-21T05:29:25;4.97;;;4.53;;
5684;SDS011;2865;53.114;9.130;2022-09-21T05:31:53;5.40;;;4.00;;
5684;SDS011;2865;53.114;9.130;2022-09-21T05:40:03;4.67;;;4.27;;
5684;SDS011;2865;53.114;9.130;2022-09-21T05:42:29;6.80;;;4.80;;
5684;SDS011;2865;53.114;9.130;2022-09-21T05:44:55;5.07;;;4.60;;
5684;SDS011;2865;53.114;9.130;2022-09-21T05:47:23;9.30;;;5.40;;
5684;SDS011;2865;53.114;9.130;2022-09-21T05:49:49;8.57;;;4.77;;
5684;SDS011;2865;53.114;9.130;2022-09-21T05:52:19;4.80;;;4.00;;
5684;SDS011;2865;53.114;9.130;2022-09-21T05:54:46;9.50;;;5.00;;
5684;SDS011;2865;53.114;9.130;2022-09-21T05:57:24;3.77;;;3.40;;
5684;SDS011;2865;53.114;9.130;2022-09-21T06:02:48;3.73;;;3.43;;
5684;SDS011;2865;53.114;9.130;2022-09-21T06:05:25;4.13;;;3.73;;
5684;SDS011;2865;53.114;9.130;2022-09-21T06:07:50;3.80;;;3.50;;
5684;SDS011;2865;53.114;9.130;2022-09-21T06:10:16;3.30;;;3.00;;
5684;SDS011;2865;53.114;9.130;2022-09-21T06:12:41;5.13;;;3.00;;
5684;SDS011;2865;53.114;9.130;2022-09-21T06:15:07;4.10;;;3.70;;
5684;SDS011;2865;53.114;9.130;2022-09-21T06:17:32;3.77;;;3.37;;
5684;SDS011;2865;53.114;9.130;2022-09-21T06:19:58;4.47;;;4.07;;
5684;SDS011;2865;53.114;9.130;2022-09-21T06:22:23;4.47;;;4.07;;
5684;SDS011;2865;53.114;9.130;2022-09-21T06:24:49;3.70;;;3.50;;
5684;SDS011;2865;53.114;9.130;2022-09-21T06:27:14;3.83;;;3.53;;
5684;SDS011;2865;53.114;9.130;2022-09-21T06:29:40;4.20;;;3.80;;
5684;SDS011;2865;53.114;9.130;2022-09-21T06:32:05;7.43;;;3.80;;
5684;SDS011;2865;53.114;9.130;2022-09-21T06:34:31;3.77;;;3.47;;
5684;SDS011;2865;53.114;9.130;2022-09-21T06:36:56;5.00;;;4.50;;
5684;SDS011;2865;53.114;9.130;2022-09-21T06:39:23;5.40;;;4.90;;
5684;SDS011;2865;53.114;9.130;2022-09-21T06:41:51;6.80;;;4.80;;
5684;SDS011;2865;53.114;9.130;2022-09-21T06:44:19;6.87;;;4.50;;
5684;SDS011;2865;53.114;9.130;2022-09-21T06:46:44;5.37;;;4.80;;
5684;SDS011;2865;53.114;9.130;2022-09-21T06:49:10;5.60;;;4.40;;
5684;SDS011;2865;53.114;9.130;2022-09-21T06:51:35;5.50;;;4.47;;
5684;SDS011;2865;53.114;9.130;2022-09-21T06:54:00;14.97;;;3.90;;
5684;SDS011;2865;53.114;9.130;2022-09-21T06:56:26;9.30;;;4.20;;
5684;SDS011;2865;53.114;9.130;2022-09-21T06:58:51;5.10;;;4.30;;
5684;SDS011;2865;53.114;9.130;2022-09-21T07:01:17;5.00;;;3.50;;
5684;SDS011;2865;53.114;9.130;2022-09-21T07:03:42;4.20;;;3.50;;
5684;SDS011;2865;53.114;9.130;2022-09-21T07:06:08;4.33;;;3.93;;
5684;SDS011;2865;53.114;9.130;2022-09-21T07:08:33;3.93;;;3.33;;
5684;SDS011;2865;53.114;9.130;2022-09-21T07:10:59;11.30;;;4.53;;
5684;SDS011;2865;53.114;9.130;2022-09-21T07:13:25;6.57;;;4.47;;
5684;SDS011;2865;53.114;9.130;2022-09-21T07:15:50;6.13;;;4.50;;
5684;SDS011;2865;53.114;9.130;2022-09-21T07:18:15;4.27;;;3.87;;
5684;SDS011;2865;53.114;9.130;2022-09-21T07:20:41;6.93;;;4.70;;
5684;SDS011;2865;53.114;9.130;2022-09-21T07:23:10;12.17;;;3.87;;
5684;SDS011;2865;53.114;9.130;2022-09-21T07:25:36;4.10;;;3.70;;
5684;SDS011;2865;53.114;9.130;2022-09-21T07:28:01;4.93;;;4.03;;
5684;SDS011;2865;53.114;9.130;2022-09-21T07:30:27;5.30;;;4.53;;
5684;SDS011;2865;53.114;9.130;2022-09-21T07:32:52;8.50;;;4.40;;
5684;SDS011;2865;53.114;9.130;2022-09-21T07:35:17;7.90;;;4.80;;
5684;SDS011;2865;53.114;9.130;2022-09-21T07:37:43;5.00;;;4.40;;
5684;SDS011;2865;53.114;9.130;2022-09-21T07:40:09;6.57;;;4.20;;
5684;SDS011;2865;53.114;9.130;2022-09-21T07:42:34;5.30;;;3.70;;
5684;SDS011;2865;53.114;9.130;2022-09-21T07:45:00;7.10;;;3.90;;
5684;SDS011;2865;53.114;9.130;2022-09-21T07:47:25;4.50;;;3.60;;
5684;SDS011;2865;53.114;9.130;2022-09-21T07:49:50;5.40;;;3.63;;
5684;SDS011;2865;53.114;9.130;2022-09-21T07:52:16;5.47;;;4.03;;
5684;SDS011;2865;53.114;9.130;2022-09-21T07:54:41;6.67;;;3.60;;
5684;SDS011;2865;53.114;9.130;2022-09-21T07:57:07;9.10;;;4.40;;
5684;SDS011;2865;53.114;9.130;2022-09-21T07:59:38;3.43;;;3.10;;
5684;SDS011;2865;53.114;9.130;2022-09-21T08:02:04;5.13;;;3.80;;
5684;SDS011;2865;53.114;9.130;2022-09-21T08:04:29;7.30;;;4.23;;
5684;SDS011;2865;53.114;9.130;2022-09-21T08:06:55;4.23;;;3.33;;
5684;SDS011;2865;53.114;9.130;2022-09-21T08:09:20;5.33;;;3.73;;
5684;SDS011;2865;53.114;9.130;2022-09-21T08:11:45;4.93;;;3.90;;
5684;SDS011;2865;53.114;9.130;2022-09-21T08:14:11;6.43;;;3.40;;
5684;SDS011;2865;53.114;9.130;2022-09-21T08:16:36;7.10;;;3.03;;
5684;SDS011;2865;53.114;9.130;2022-09-21T08:19:03;9.23;;;4.10;;
5684;SDS011;2865;53.114;9.130;2022-09-21T08:21:27;6.80;;;3.10;;
5684;SDS011;2865;53.114;9.130;2022-09-21T08:23:52;9.70;;;3.20;;
5684;SDS011;2865;53.114;9.130;2022-09-21T08:26:18;5.50;;;3.50;;
5684;SDS011;2865;53.114;9.130;2022-09-21T08:28:44;10.97;;;3.60;;
5684;SDS011;2865;53.114;9.130;2022-09-21T08:31:09;9.20;;;4.10;;
5684;SDS011;2865;53.114;9.130;2022-09-21T08:33:35;4.43;;;2.80;;
5684;SDS011;2865;53.114;9.130;2022-09-21T08:36:01;4.47;;;3.20;;
5684;SDS011;2865;53.114;9.130;2022-09-21T08:38:30;8.13;;;3.53;;
5684;SDS011;2865;53.114;9.130;2022-09-21T08:40:52;6.77;;;3.57;;
5684;SDS011;2865;53.114;9.130;2022-09-21T08:43:25;7.50;;;3.50;;
5684;SDS011;2865;53.114;9.130;2022-09-21T08:45:43;9.20;;;3.40;;
5684;SDS011;2865;53.114;9.130;2022-09-21T08:48:10;7.40;;;3.13;;
5684;SDS011;2865;53.114;9.130;2022-09-21T08:50:36;5.37;;;3.30;;
5684;SDS011;2865;53.114;9.130;2022-09-21T08:53:01;11.47;;;3.27;;
5684;SDS011;2865;53.114;9.130;2022-09-21T08:55:25;8.40;;;4.27;;
5684;SDS011;2865;53.114;9.130;2022-09-21T08:57:50;14.20;;;3.70;;
5684;SDS011;2865;53.114;9.130;2022-09-21T09:00:16;5.57;;;4.27;;
5684;SDS011;2865;53.114;9.130;2022-09-21T09:05:30;9.43;;;4.67;;
5684;SDS011;2865;53.114;9.130;2022-09-21T09:08:01;11.60;;;3.97;;
5684;SDS011;2865;53.114;9.130;2022-09-21T09:10:35;20.03;;;5.57;;
5684;SDS011;2865;53.114;9.130;2022-09-21T09:13:13;12.83;;;4.43;;
5684;SDS011;2865;53.114;9.130;2022-09-21T09:15:42;6.37;;;3.60;;
5684;SDS011;2865;53.114;9.130;2022-09-21T09:18:13;9.10;;;3.37;;
5684;SDS011;2865;53.114;9.130;2022-09-21T09:20:41;5.50;;;2.90;;
5684;SDS011;2865;53.114;9.130;2022-09-21T09:23:18;7.70;;;2.97;;
5684;SDS011;2865;53.114;9.130;2022-09-21T09:25:45;9.73;;;3.20;;
5684;SDS011;2865;53.114;9.130;2022-09-21T09:28:15;4.90;;;1.83;;
5684;SDS011;2865;53.114;9.130;2022-09-21T09:30:39;7.23;;;2.20;;
5684;SDS011;2865;53.114;9.130;2022-09-21T09:35:51;3.83;;;1.80;;
5684;SDS011;2865;53.114;9.130;2022-09-21T09:43:43;5.47;;;2.00;;
5684;SDS011;2865;53.114;9.130;2022-09-21T09:46:18;4.30;;;1.90;;
5684;SDS011;2865;53.114;9.130;2022-09-21T09:48:44;11.20;;;2.43;;
5684;SDS011;2865;53.114;9.130;2022-09-21T09:51:09;2.60;;;1.60;;
5684;SDS011;2865;53.114;9.130;2022-09-21T09:53:34;5.00;;;1.83;;
5684;SDS011;2865;53.114;9.130;2022-09-21T09:55:59;5.03;;;1.90;;
5684;SDS011;2865;53.114;9.130;2022-09-21T09:58:47;6.77;;;2.53;;
5684;SDS011;2865;53.114;9.130;2022-09-21T10:01:34;3.30;;;1.90;;
5684;SDS011;2865;53.114;9.130;2022-09-21T10:03:36;4.27;;;2.10;;
5684;SDS011;2865;53.114;9.130;2022-09-21T10:06:01;4.67;;;1.97;;
5684;SDS011;2865;53.114;9.130;2022-09-21T10:08:30;7.40;;;1.97;;
5684;SDS011;2865;53.114;9.130;2022-09-21T10:11:10;8.57;;;2.30;;
5684;SDS011;2865;53.114;9.130;2022-09-21T10:13:36;2.40;;;1.60;;
5684;SDS011;2865;53.114;9.130;2022-09-21T10:18:46;6.03;;;1.97;;
5684;SDS011;2865;53.114;9.130;2022-09-21T10:21:16;3.30;;;1.40;;
5684;SDS011;2865;53.114;9.130;2022-09-21T10:23:52;5.13;;;1.63;;
5684;SDS011;2865;53.114;9.130;2022-09-21T10:26:18;3.83;;;1.50;;
5684;SDS011;2865;53.114;9.130;2022-09-21T10:31:20;11.00;;;1.73;;
5684;SDS011;2865;53.114;9.130;2022-09-21T10:33:46;6.70;;;2.27;;
5684;SDS011;2865;53.114;9.130;2022-09-21T10:38:48;8.80;;;2.33;;
5684;SDS011;2865;53.114;9.130;2022-09-21T10:41:13;7.67;;;2.10;;
5684;SDS011;2865;53.114;9.130;2022-09-21T10:43:40;7.00;;;2.60;;
5684;SDS011;2865;53.114;9.130;2022-09-21T10:46:04;5.93;;;1.80;;
5684;SDS011;2865;53.114;9.130;2022-09-21T10:48:30;4.73;;;1.50;;
5684;SDS011;2865;53.114;9.130;2022-09-21T10:50:55;5.73;;;1.00;;
5684;SDS011;2865;53.114;9.130;2022-09-21T10:53:29;4.97;;;2.27;;
5684;SDS011;2865;53.114;9.130;2022-09-21T10:59:08;5.97;;;1.53;;
5684;SDS011;2865;53.114;9.130;2022-09-21T11:01:10;6.53;;;1.33;;
5684;SDS011;2865;53.114;9.130;2022-09-21T11:03:40;5.03;;;1.50;;
5684;SDS011;2865;53.114;9.130;2022-09-21T11:06:12;6.53;;;1.60;;
5684;SDS011;2865;53.114;9.130;2022-09-21T11:08:40;3.90;;;1.20;;
5684;SDS011;2865;53.114;9.130;2022-09-21T11:12:27;3.30;;;1.40;;
5684;SDS011;2865;53.114;9.130;2022-09-21T11:14:08;4.50;;;1.40;;
5684;SDS011;2865;53.114;9.130;2022-09-21T11:16:42;5.50;;;1.50;;
5684;SDS011;2865;53.114;9.130;2022-09-21T11:19:09;5.87;;;1.60;;
5684;SDS011;2865;53.114;9.130;2022-09-21T11:21:53;6.70;;;1.43;;
5684;SDS011;2865;53.114;9.130;2022-09-21T11:27:05;4.30;;;1.50;;
5684;SDS011;2865;53.114;9.130;2022-09-21T11:29:32;5.90;;;1.37;;
5684;SDS011;2865;53.114;9.130;2022-09-21T11:35:01;3.17;;;1.23;;
5684;SDS011;2865;53.114;9.130;2022-09-21T11:37:33;5.30;;;1.60;;
5684;SDS011;2865;53.114;9.130;2022-09-21T11:40:06;9.23;;;1.33;;
5684;SDS011;2865;53.114;9.130;2022-09-21T11:45:21;3.20;;;1.50;;
5684;SDS011;2865;53.114;9.130;2022-09-21T11:47:52;2.27;;;0.93;;
5684;SDS011;2865;53.114;9.130;2022-09-21T11:50:37;7.30;;;1.43;;
5684;SDS011;2865;53.114;9.130;2022-09-21T11:53:19;10.07;;;1.50;;
5684;SDS011;2865;53.114;9.130;2022-09-21T11:55:54;4.23;;;1.10;;
5684;SDS011;2865;53.114;9.130;2022-09-21T11:58:43;2.87;;;1.10;;
5684;SDS011;2865;53.114;9.130;2022-09-21T12:01:17;3.40;;;1.00;;
5684;SDS011;2865;53.114;9.130;2022-09-21T12:03:49;6.63;;;1.30;;
5684;SDS011;2865;53.114;9.130;2022-09-21T12:06:20;4.10;;;1.43;;
5684;SDS011;2865;53.114;9.130;2022-09-21T12:09:18;3.33;;;1.33;;
5684;SDS011;2865;53.114;9.130;2022-09-21T12:11:36;3.20;;;1.20;;
5684;SDS011;2865;53.114;9.130;2022-09-21T12:15:11;4.20;;;1.07;;
5684;SDS011;2865;53.114;9.130;2022-09-21T12:16:52;6.43;;;1.40;;
5684;SDS011;2865;53.114;9.130;2022-09-21T12:22:05;2.53;;;1.23;;
5684;SDS011;2865;53.114;9.130;2022-09-21T12:24:35;5.90;;;1.10;;
5684;SDS011;2865;53.114;9.130;2022-09-21T12:27:02;2.73;;;1.20;;
5684;SDS011;2865;53.114;9.130;2022-09-21T12:29:43;10.77;;;1.57;;
5684;SDS011;2865;53.114;9.130;2022-09-21T12:34:52;4.63;;;1.70;;
5684;SDS011;2865;53.114;9.130;2022-09-21T12:37:25;6.50;;;1.20;;
5684;SDS011;2865;53.114;9.130;2022-09-21T12:39:54;9.23;;;1.50;;
5684;SDS011;2865;53.114;9.130;2022-09-21T12:42:24;7.10;;;1.37;;
5684;SDS011;2865;53.114;9.130;2022-09-21T12:44:54;3.27;;;0.90;;
5684;SDS011;2865;53.114;9.130;2022-09-21T12:47:19;3.40;;;1.27;;
5684;SDS011;2865;53.114;9.130;2022-09-21T12:49:44;3.63;;;1.10;;
5684;SDS011;2865;53.114;9.130;2022-09-21T12:52:09;4.10;;;1.47;;
5684;SDS011;2865;53.114;9.130;2022-09-21T12:58:04;3.57;;;1.33;;
5684;SDS011;2865;53.114;9.130;2022-09-21T13:00:12;2.10;;;1.17;;
5684;SDS011;2865;53.114;9.130;2022-09-21T13:02:41;2.17;;;1.07;;
5684;SDS011;2865;53.114;9.130;2022-09-21T13:05:11;5.67;;;1.37;;
5684;SDS011;2865;53.114;9.130;2022-09-21T13:07:37;5.70;;;1.40;;
5684;SDS011;2865;53.114;9.130;2022-09-21T13:10:08;2.40;;;0.90;;
5684;SDS011;2865;53.114;9.130;2022-09-21T13:12:36;1.80;;;1.20;;
5684;SDS011;2865;53.114;9.130;2022-09-21T13:15:02;2.87;;;1.30;;
5684;SDS011;2865;53.114;9.130;2022-09-21T13:17:27;5.83;;;1.13;;
5684;SDS011;2865;53.114;9.130;2022-09-21T13:19:57;4.80;;;1.40;;
5684;SDS011;2865;53.114;9.130;2022-09-21T13:22:35;2.43;;;1.10;;
5684;SDS011;2865;53.114;9.130;2022-09-21T13:25:03;4.10;;;1.23;;
5684;SDS011;2865;53.114;9.130;2022-09-21T13:30:46;6.33;;;1.30;;
5684;SDS011;2865;53.114;9.130;2022-09-21T13:32:55;1.43;;;1.13;;
5684;SDS011;2865;53.114;9.130;2022-09-21T13:35:47;2.27;;;1.00;;
5684;SDS011;2865;53.114;9.130;2022-09-21T13:40:35;5.97;;;1.27;;
5684;SDS011;2865;53.114;9.130;2022-09-21T13:45:50;3.87;;;1.30;;
5684;SDS011;2865;53.114;9.130;2022-09-21T13:48:17;3.00;;;1.00;;
5684;SDS011;2865;53.114;9.130;2022-09-21T13:50:41;2.87;;;1.10;;
5684;SDS011;2865;53.114;9.130;2022-09-21T13:53:07;4.20;;;1.27;;
5684;SDS011;2865;53.114;9.130;2022-09-21T13:55:34;3.03;;;1.00;;
5684;SDS011;2865;53.114;9.130;2022-09-21T13:58:00;8.30;;;1.33;;
5684;SDS011;2865;53.114;9.130;2022-09-21T14:00:30;1.60;;;1.03;;
5684;SDS011;2865;53.114;9.130;2022-09-21T14:02:56;2.20;;;1.30;;
5684;SDS011;2865;53.114;9.130;2022-09-21T14:05:26;2.43;;;1.00;;
5684;SDS011;2865;53.114;9.130;2022-09-21T14:07:58;2.50;;;0.97;;
5684;SDS011;2865;53.114;9.130;2022-09-21T14:10:25;2.30;;;1.03;;
5684;SDS011;2865;53.114;9.130;2022-09-21T14:12:50;3.00;;;1.20;;
5684;SDS011;2865;53.114;9.130;2022-09-21T14:15:33;1.10;;;0.90;;
5684;SDS011;2865;53.114;9.130;2022-09-21T14:25:55;3.73;;;1.20;;
5684;SDS011;2865;53.114;9.130;2022-09-21T14:28:26;1.77;;;1.20;;
5684;SDS011;2865;53.114;9.130;2022-09-21T14:30:51;1.53;;;1.00;;
5684;SDS011;2865;53.114;9.130;2022-09-21T14:33:20;1.83;;;0.90;;
5684;SDS011;2865;53.114;9.130;2022-09-21T14:35:45;2.83;;;1.03;;
5684;SDS011;2865;53.114;9.130;2022-09-21T14:38:15;3.50;;;1.10;;
5684;SDS011;2865;53.114;9.130;2022-09-21T14:40:39;5.43;;;1.83;;
5684;SDS011;2865;53.114;9.130;2022-09-21T14:43:08;3.17;;;1.47;;
5684;SDS011;2865;53.114;9.130;2022-09-21T14:45:41;1.77;;;1.00;;
5684;SDS011;2865;53.114;9.130;2022-09-21T14:48:03;1.53;;;0.90;;
5684;SDS011;2865;53.114;9.130;2022-09-21T14:50:33;1.30;;;1.10;;
5684;SDS011;2865;53.114;9.130;2022-09-21T14:55:49;2.83;;;1.13;;
5684;SDS011;2865;53.114;9.130;2022-09-21T14:58:18;4.70;;;1.23;;
5684;SDS011;2865;53.114;9.130;2022-09-21T15:00:44;4.10;;;1.37;;
5684;SDS011;2865;53.114;9.130;2022-09-21T15:06:00;6.13;;;1.10;;
5684;SDS011;2865;53.114;9.130;2022-09-21T15:08:41;4.63;;;0.97;;
5684;SDS011;2865;53.114;9.130;2022-09-21T15:11:14;2.20;;;1.30;;
5684;SDS011;2865;53.114;9.130;2022-09-21T15:14:27;1.33;;;0.90;;
5684;SDS011;2865;53.114;9.130;2022-09-21T15:16:40;1.47;;;1.00;;
5684;SDS011;2865;53.114;9.130;2022-09-21T15:19:09;3.20;;;0.87;;
5684;SDS011;2865;53.114;9.130;2022-09-21T15:21:36;2.93;;;1.00;;
5684;SDS011;2865;53.114;9.130;2022-09-21T15:24:09;5.13;;;1.13;;
5684;SDS011;2865;53.114;9.130;2022-09-21T15:26:28;3.23;;;1.20;;
5684;SDS011;2865;53.114;9.130;2022-09-21T15:28:53;2.90;;;1.13;;
5684;SDS011;2865;53.114;9.130;2022-09-21T15:31:17;3.90;;;1.20;;
5684;SDS011;2865;53.114;9.130;2022-09-21T15:33:43;1.77;;;1.27;;
5684;SDS011;2865;53.114;9.130;2022-09-21T15:36:08;1.67;;;0.93;;
5684;SDS011;2865;53.114;9.130;2022-09-21T15:38:34;4.53;;;1.10;;
5684;SDS011;2865;53.114;9.130;2022-09-21T15:40:59;1.70;;;0.80;;
5684;SDS011;2865;53.114;9.130;2022-09-21T15:43:24;2.60;;;1.33;;
5684;SDS011;2865;53.114;9.130;2022-09-21T15:45:56;1.70;;;0.97;;
5684;SDS011;2865;53.114;9.130;2022-09-21T15:48:22;1.57;;;1.00;;
5684;SDS011;2865;53.114;9.130;2022-09-21T15:53:31;0.93;;;0.83;;
5684;SDS011;2865;53.114;9.130;2022-09-21T15:55:56;3.23;;;1.07;;
5684;SDS011;2865;53.114;9.130;2022-09-21T15:58:25;5.50;;;1.60;;
5684;SDS011;2865;53.114;9.130;2022-09-21T16:00:49;2.53;;;1.13;;
5684;SDS011;2865;53.114;9.130;2022-09-21T16:03:17;7.23;;;1.43;;
5684;SDS011;2865;53.114;9.130;2022-09-21T16:05:46;1.47;;;0.83;;
5684;SDS011;2865;53.114;9.130;2022-09-21T16:08:18;2.63;;;1.10;;
5684;SDS011;2865;53.114;9.130;2022-09-21T16:10:50;2.23;;;1.13;;
5684;SDS011;2865;53.114;9.130;2022-09-21T16:13:17;2.70;;;1.10;;
5684;SDS011;2865;53.114;9.130;2022-09-21T16:16:25;1.33;;;1.23;;
5684;SDS011;2865;53.114;9.130;2022-09-21T16:18:41;2.83;;;1.70;;
5684;SDS011;2865;53.114;9.130;2022-09-21T16:21:07;1.40;;;0.90;;
5684;SDS011;2865;53.114;9.130;2022-09-21T16:23:32;1.77;;;1.00;;
5684;SDS011;2865;53.114;9.130;2022-09-21T16:25:58;1.60;;;1.00;;
5684;SDS011;2865;53.114;9.130;2022-09-21T16:28:25;2.87;;;1.10;;
5684;SDS011;2865;53.114;9.130;2022-09-21T16:30:51;2.53;;;1.00;;
5684;SDS011;2865;53.114;9.130;2022-09-21T16:35:54;3.07;;;1.27;;
5684;SDS011;2865;53.114;9.130;2022-09-21T16:38:19;2.07;;;0.93;;
5684;SDS011;2865;53.114;9.130;2022-09-21T16:40:45;2.70;;;1.30;;